Greensboro, NC

12:44 AM EST on December 22, 2014 (GMT -0500)
Westerwood | Change Station
CLOSE
Current Station
Personal Weather Station
Location: Greensboro, NC
Elevation: 775 ft
Nearby Weather Stations

Elev 775 ft 36.08 °N, 79.81 °W | Updated 3 seconds ago

Overcast
Overcast
40.7 °F
Feels Like 41 °F
N
0.0
Wind Variable Wind from NE
Gusts 5.0 mph

Today
High -- | Low -- °F
--% Chance of Precip.
Yesterday
High -- | Low -- °F
Precip. -- in
7:26 AM 5:08 PM
New Moon, 0% visible
Pressure 30.22 in
Visibility 9.0 miles
Clouds Overcast 3400 ft
Windchill 41 °F
Dew Point 36 °F
Humidity 82%
Rainfall 0.00 in
Snow Depth Not available.
UV 0 out of 12
Pollen .30 out of 12
Air Quality Not available.
Flu Activity Not available.
METAR KGSO 220454Z 05005KT 9SM -RA OVC034 04/01 A3020 RMK AO2 RAB43 SLP231 P0000 T00440011 400830033

More Conditions Fewer Conditions

Pressure 30.22 in
Visibility 9.0 miles
Clouds Overcast 3400 ft
Windchill 41 °F
Dew Point 36 °F
Humidity 82%
Rainfall 0.00 in
Snow Depth Not available.
UV 0 out of 12
Pollen .30 out of 12
Air Quality Not available.
Flu Activity Not available.
METAR KGSO 220454Z 05005KT 9SM -RA OVC034 04/01 A3020 RMK AO2 RAB43 SLP231 P0000 T00440011 400830033

More Conditions Fewer Conditions

10-Day Weather Forecast

Almanac

Astronomy

Dec. 22, 2014 Rise Set
Actual Time
Civil Twilight
Nautical Twilight
Astronomical Twilight
Moon
Length of Visible Light
Length of Day
Tomorrow will be .
, % of the Moon is Illuminated

Today's Extremes

State Highs State Lows

Community

WunderPhotos

Upload Photos

1,779,549 photos uploaded!

WunderBlogs® & News

Nearby

Air Quality

  Air Quality AQ Index Pollutant
Not available.

Snow Depth

Station Depth Elevation

Earthquake Activity

City Distance Mag. Time & Date
Minimum magnitude displayed is 2.5.

Coastal Water Temperatures

Place Temperature

Nearby Weather Stations